Briefing drone pour Vic-sur-cere

Rechercher une autre localisation

Conditions de vol :


Nous sommes le : Jeudi 27 janvier 2022
Il est 19:58 UTC (20:58 LT)

Lever de soleil : 06:48 UTC (07:48 LT)
Coucher de soleil : 17:16 UTC (18:16 LT)

Météo

L'essentiel des conditions de vol

VIGILANCE MÉTÉO FRANCE - Cantal (15)
Vigilance Jaune : Neige-verglas
METAR de LFLW
LFLW 271930Z AUTO 00000KT CAVOK 00/M05 Q1030

Date d'émission: 27/01/2022
Heure d'émission: 19:30 UTC
Vent: Calme
Visibilité horizontale: > 10 km
Plafond : Plafond et visibilité OK (CAVOK)
Température: 0 °C
Point de rosée: -5 °C
Humidité: 69%
Pression (QNH): 1030 hPa
Prévision 24h pour Aurillac (9 km)
Vent : 345° pour 1 KT (4 km/h)
Temperature Maxi: 9 °C
Temperature Min: 9 °C
Humidité : 52%
Condition : Ciel dégagé



Warning: count(): Parameter must be an array or an object that implements Countable in /homepages/6/d509196549/htdocs/droneoxygene/briefing.php on line 743
WEBCAM POUR VIC-SUR-CERE

Réglementation

Voler en sécurité

CARTES AERONAUTIQUE 1/500.000
CARTES VAC (LFLW)
SUP AIP




Chargement des AIP...
NOTAM (VIC-SUR-CERE + Terrain à proximité / FIR )




Chargement des NOTAMS...
CONTACT PREFECTURE 15


Avertissement : Les données mises à disposition sont indicatives. Oxygène Drone ne pourra être tenu responsable de dégâts causés aux biens et aux personnes.